createdAt,value
2023-08-14T00:00:01.983Z,6.18
2023-08-14T00:03:05.006Z,7.07
2023-08-14T00:06:07.656Z,7.03
2023-08-14T00:09:10.085Z,6.65
2023-08-14T00:12:12.557Z,7.05
2023-08-14T00:15:15.311Z,7.20
2023-08-14T00:18:18.065Z,6.87
2023-08-14T00:21:20.693Z,7.23
2023-08-14T00:24:23.101Z,6.60
2023-08-14T00:27:26.295Z,7.28
2023-08-14T00:30:28.714Z,6.90
2023-08-14T00:33:31.114Z,8.40
2023-08-14T00:36:33.655Z,6.60
2023-08-14T00:39:36.123Z,6.85
2023-08-14T00:42:43.541Z,6.95
2023-08-14T00:45:47.297Z,6.50
2023-08-14T00:48:50.720Z,7.17
2023-08-14T00:51:53.905Z,7.90
2023-08-14T00:54:56.351Z,7.82
2023-08-14T00:57:58.921Z,7.18
2023-08-14T01:01:01.561Z,7.22
2023-08-14T01:04:04.555Z,7.83
2023-08-14T01:07:06.967Z,7.20
2023-08-14T01:10:11.503Z,9.73
2023-08-14T01:13:26.067Z,7.97
2023-08-14T01:16:39.419Z,7.90
2023-08-14T01:19:42.862Z,8.80
2023-08-14T01:23:07.077Z,6.97
2023-08-14T01:26:09.823Z,9.07
2023-08-14T01:29:12.473Z,11.63
2023-08-14T01:32:15.277Z,7.60
2023-08-14T01:35:20.824Z,7.53
2023-08-14T01:38:33.108Z,8.13
2023-08-14T01:42:03.983Z,7.85
2023-08-14T01:45:13.499Z,8.95
2023-08-14T01:48:16.412Z,7.85
2023-08-14T01:51:20.621Z,7.47
2023-08-14T01:54:23.079Z,8.47
2023-08-14T01:57:26.531Z,7.82
2023-08-14T02:00:33.036Z,8.27
2023-08-14T02:03:35.900Z,8.05
2023-08-14T02:06:38.293Z,6.90
2023-08-14T02:09:40.712Z,8.37
2023-08-14T02:12:43.136Z,7.95
2023-08-14T02:15:47.072Z,7.93
2023-08-14T02:18:49.628Z,7.32
2023-08-14T02:21:52.036Z,8.43
2023-08-14T02:24:54.547Z,8.57
2023-08-14T02:27:56.934Z,7.50
2023-08-14T02:31:03.018Z,7.57
2023-08-14T02:34:05.491Z,8.00
2023-08-14T02:37:07.870Z,8.90
2023-08-14T02:40:10.735Z,8.47
2023-08-14T02:43:13.155Z,8.60
2023-08-14T02:46:16.374Z,8.52
2023-08-14T02:49:18.902Z,8.07
2023-08-14T02:52:21.358Z,7.63
2023-08-14T02:55:23.956Z,8.17
2023-08-14T02:58:26.696Z,11.52
2023-08-14T03:01:29.148Z,8.70
2023-08-14T03:04:31.631Z,7.45
2023-08-14T03:07:34.111Z,8.27
2023-08-14T03:10:36.518Z,8.67
2023-08-14T03:13:38.943Z,9.55
2023-08-14T03:16:41.461Z,8.73
2023-08-14T03:19:43.980Z,8.50
2023-08-14T03:22:46.517Z,10.37
2023-08-14T03:25:48.961Z,8.20
2023-08-14T03:28:51.368Z,8.52
2023-08-14T03:31:54.012Z,8.93
2023-08-14T03:34:56.977Z,9.30
2023-08-14T03:38:00.392Z,8.90
2023-08-14T03:41:03.050Z,12.03
2023-08-14T03:44:06.408Z,10.48
2023-08-14T03:47:09.112Z,9.80
2023-08-14T03:50:11.908Z,9.55
2023-08-14T03:53:14.964Z,9.33
2023-08-14T03:56:17.440Z,10.53
2023-08-14T03:59:19.870Z,12.38
2023-08-14T04:02:22.362Z,9.70
2023-08-14T04:05:24.792Z,11.65
2023-08-14T04:08:27.218Z,9.23
2023-08-14T04:11:30.028Z,9.57
2023-08-14T04:14:34.092Z,9.40
2023-08-14T04:17:36.576Z,9.07
2023-08-14T04:20:39.040Z,9.75
2023-08-14T04:23:41.405Z,8.77
2023-08-14T04:26:43.959Z,8.67
2023-08-14T04:29:48.111Z,8.50
2023-08-14T04:32:50.581Z,7.80
2023-08-14T04:35:53.296Z,7.20
2023-08-14T04:38:56.151Z,7.57
2023-08-14T04:42:00.008Z,7.40
2023-08-14T04:45:04.108Z,8.25
2023-08-14T04:48:06.853Z,7.00
2023-08-14T04:51:09.403Z,7.57
2023-08-14T04:54:12.002Z,7.27
2023-08-14T04:57:14.434Z,6.93
2023-08-14T05:00:17.220Z,6.65
2023-08-14T05:03:20.200Z,9.07
2023-08-14T05:06:24.058Z,7.43
2023-08-14T05:09:27.939Z,7.97
2023-08-14T05:12:32.382Z,7.00
2023-08-14T05:15:34.972Z,7.07
2023-08-14T05:18:37.408Z,7.00
2023-08-14T05:21:39.929Z,7.43
2023-08-14T05:24:42.323Z,6.57
2023-08-14T05:27:44.675Z,7.33
2023-08-14T05:30:47.163Z,7.07
2023-08-14T05:33:49.649Z,6.57
2023-08-14T05:36:52.077Z,6.97
2023-08-14T05:39:54.498Z,6.67
2023-08-14T05:43:04.871Z,7.60
2023-08-14T05:46:07.408Z,8.13
2023-08-14T05:49:09.953Z,7.25
2023-08-14T05:52:12.360Z,7.70
2023-08-14T05:55:15.251Z,6.60
2023-08-14T05:58:17.685Z,7.77
2023-08-14T06:01:20.180Z,6.57
2023-08-14T06:04:22.842Z,7.18
2023-08-14T06:07:25.289Z,6.57
2023-08-14T06:10:27.914Z,7.23
2023-08-14T06:13:30.272Z,6.33
2023-08-14T06:16:32.721Z,7.95
2023-08-14T06:19:35.235Z,5.95
2023-08-14T06:22:41.673Z,8.35
2023-08-14T06:25:44.763Z,6.07
2023-08-14T06:28:47.218Z,6.63
2023-08-14T06:31:49.642Z,5.93
2023-08-14T06:34:52.086Z,6.15
2023-08-14T06:37:54.497Z,6.20
2023-08-14T06:40:56.905Z,6.13
2023-08-14T06:43:59.316Z,6.60
2023-08-14T06:47:02.082Z,6.18
2023-08-14T06:50:04.676Z,5.13
2023-08-14T06:53:07.064Z,4.82
2023-08-14T06:56:09.955Z,6.43
2023-08-14T06:59:12.349Z,4.17
2023-08-14T07:02:14.791Z,4.45
2023-08-14T07:05:17.206Z,3.88
2023-08-14T07:08:19.661Z,4.32
2023-08-14T07:11:22.144Z,4.77
2023-08-14T07:14:30.458Z,4.70
2023-08-14T07:17:33.585Z,4.60
2023-08-14T07:20:36.172Z,4.63
2023-08-14T07:23:38.710Z,4.60
2023-08-14T07:26:42.172Z,3.90
2023-08-14T07:29:45.453Z,3.63
2023-08-14T07:32:47.913Z,3.80
2023-08-14T07:35:50.392Z,3.60
2023-08-14T07:38:52.817Z,3.58
2023-08-14T07:41:55.258Z,3.50
2023-08-14T07:44:57.683Z,3.37
2023-08-14T07:48:00.120Z,3.33
2023-08-14T07:51:02.586Z,3.33
2023-08-14T07:54:05.197Z,3.15
2023-08-14T07:57:07.646Z,5.87
2023-08-14T08:00:10.906Z,4.43
2023-08-14T08:03:16.175Z,3.30
2023-08-14T08:06:18.559Z,4.22
2023-08-14T08:09:20.973Z,3.00
2023-08-14T08:12:23.368Z,3.27
2023-08-14T08:15:25.783Z,3.50
2023-08-14T08:18:28.246Z,3.38
2023-08-14T08:21:30.767Z,2.92
2023-08-14T08:24:33.198Z,4.03
2023-08-14T08:27:36.595Z,3.50
2023-08-14T08:30:39.691Z,3.47
2023-08-14T08:33:42.042Z,3.38
2023-08-14T08:36:44.445Z,3.85
2023-08-14T08:39:49.586Z,3.30
2023-08-14T08:42:52.501Z,6.17
2023-08-14T08:45:59.184Z,3.53
2023-08-14T08:49:03.912Z,4.72
2023-08-14T08:52:07.141Z,3.13
2023-08-14T08:55:09.791Z,4.07
2023-08-14T08:58:16.500Z,3.37
2023-08-14T09:01:20.146Z,5.97
2023-08-14T09:04:22.789Z,3.53
2023-08-14T09:07:25.320Z,3.50
2023-08-14T09:10:28.960Z,3.53
2023-08-14T09:13:32.607Z,3.37
2023-08-14T09:16:35.438Z,4.07
2023-08-14T09:19:40.085Z,2.88
2023-08-14T09:22:42.613Z,3.15
2023-08-14T09:25:48.806Z,3.83
2023-08-14T09:28:51.736Z,3.47
2023-08-14T09:31:54.543Z,3.23
2023-08-14T09:35:01.255Z,3.47
2023-08-14T09:38:04.285Z,3.13
2023-08-14T09:41:07.177Z,5.72
2023-08-14T09:44:09.579Z,3.30
2023-08-14T09:47:14.778Z,4.37
2023-08-14T09:50:19.040Z,6.75
2023-08-14T09:53:21.451Z,2.92
2023-08-14T09:56:24.958Z,3.53
2023-08-14T09:59:28.083Z,3.00
2023-08-14T10:02:33.373Z,6.50
2023-08-14T10:05:38.987Z,3.50
2023-08-14T10:08:45.441Z,3.15
2023-08-14T10:11:49.020Z,4.00
2023-08-14T10:15:12.826Z,3.13
2023-08-14T10:18:17.576Z,3.03
2023-08-14T10:21:21.374Z,4.65
2023-08-14T10:24:25.070Z,3.92
2023-08-14T10:27:28.596Z,3.10
2023-08-14T10:30:32.345Z,2.70
2023-08-14T10:33:35.098Z,5.17
2023-08-14T10:36:40.060Z,3.10
2023-08-14T10:39:42.474Z,3.35
2023-08-14T10:42:57.103Z,3.33
2023-08-14T10:45:59.673Z,3.23
2023-08-14T10:49:02.196Z,3.73
2023-08-14T10:52:05.043Z,4.07
2023-08-14T10:55:16.627Z,4.28
2023-08-14T10:58:40.082Z,3.28
2023-08-14T11:01:42.555Z,3.73
2023-08-14T11:05:02.174Z,4.13
2023-08-14T11:08:07.635Z,3.97
2023-08-14T11:11:12.045Z,3.13
2023-08-14T11:14:14.516Z,3.63
2023-08-14T11:17:17.389Z,4.40
2023-08-14T11:20:20.379Z,3.63
2023-08-14T11:23:22.807Z,4.40
2023-08-14T11:26:29.661Z,3.50
2023-08-14T11:29:33.183Z,3.85
2023-08-14T11:32:36.019Z,3.90
2023-08-14T11:35:38.530Z,4.23
2023-08-14T11:38:41.555Z,3.70
2023-08-14T11:41:43.947Z,3.75
2023-08-14T11:44:46.345Z,4.32
2023-08-14T11:47:50.383Z,3.90
2023-08-14T11:50:52.958Z,4.13
2023-08-14T11:53:55.529Z,3.72
2023-08-14T11:56:57.965Z,3.80
2023-08-14T12:00:04.494Z,3.92
2023-08-14T12:03:08.543Z,5.13
2023-08-14T12:06:12.043Z,4.33
2023-08-14T12:09:14.432Z,4.65
2023-08-14T12:12:18.153Z,4.65
2023-08-14T12:15:24.246Z,4.30
2023-08-14T12:18:27.163Z,4.30
2023-08-14T12:21:29.642Z,4.07
2023-08-14T12:24:42.996Z,3.92
2023-08-14T12:27:45.443Z,4.25
2023-08-14T12:30:49.585Z,4.05
2023-08-14T12:33:59.225Z,4.37
2023-08-14T12:37:08.653Z,4.03
2023-08-14T12:40:11.923Z,4.68
2023-08-14T12:43:14.508Z,4.30
2023-08-14T12:46:17.005Z,4.43
2023-08-14T12:49:20.454Z,4.23
2023-08-14T12:52:22.807Z,3.97
2023-08-14T12:55:25.373Z,3.80
2023-08-14T12:58:27.800Z,3.42
2023-08-14T13:01:30.583Z,4.05
2023-08-14T13:04:36.275Z,5.13
2023-08-14T13:07:39.216Z,4.97
2023-08-14T13:10:41.578Z,3.53
2023-08-14T13:13:43.952Z,4.75
2023-08-14T13:16:46.542Z,5.53
2023-08-14T13:19:50.061Z,3.50
2023-08-14T13:22:52.726Z,4.67
2023-08-14T13:25:55.166Z,3.90
2023-08-14T13:28:57.913Z,4.43
2023-08-14T13:32:00.423Z,3.78
2023-08-14T13:35:03.103Z,3.97
2023-08-14T13:38:05.632Z,3.63
2023-08-14T13:41:09.169Z,3.85
2023-08-14T13:44:12.834Z,3.70
2023-08-14T13:47:17.259Z,3.38
2023-08-14T13:50:31.860Z,4.37
2023-08-14T13:53:35.882Z,3.40
2023-08-14T13:56:38.323Z,3.55
2023-08-14T13:59:40.743Z,3.17
2023-08-14T14:02:43.268Z,3.67
2023-08-14T14:05:45.704Z,4.13
2023-08-14T14:08:48.273Z,3.97
2023-08-14T14:11:50.671Z,3.10
2023-08-14T14:14:53.031Z,3.17
2023-08-14T14:17:55.731Z,3.30
2023-08-14T14:20:59.392Z,3.57
2023-08-14T14:24:02.077Z,3.17
2023-08-14T14:27:04.731Z,4.03
2023-08-14T14:30:08.263Z,2.97
2023-08-14T14:33:11.238Z,5.60
2023-08-14T14:36:13.620Z,2.83
2023-08-14T14:39:16.656Z,4.30
2023-08-14T14:42:20.672Z,3.55
2023-08-14T14:45:33.352Z,3.60
2023-08-14T14:48:37.492Z,3.53
2023-08-14T14:51:39.922Z,3.07
2023-08-14T14:54:42.306Z,3.70
2023-08-14T14:57:44.725Z,3.42
2023-08-14T15:00:50.769Z,3.40
2023-08-14T15:03:53.312Z,3.40
2023-08-14T15:06:55.890Z,3.23
2023-08-14T15:09:58.268Z,3.23
2023-08-14T15:13:00.743Z,3.03
2023-08-14T15:16:03.292Z,3.63
2023-08-14T15:19:06.060Z,5.13
2023-08-14T15:22:08.507Z,3.47
2023-08-14T15:25:13.132Z,3.80
2023-08-14T15:28:15.868Z,3.35
2023-08-14T15:31:18.291Z,3.42
2023-08-14T15:34:20.810Z,3.60
2023-08-14T15:37:23.346Z,3.87
2023-08-14T15:40:25.828Z,3.50
2023-08-14T15:43:28.328Z,3.97
2023-08-14T15:46:30.765Z,4.63
2023-08-14T15:49:33.197Z,4.25
2023-08-14T15:52:35.789Z,4.83
2023-08-14T15:55:39.918Z,4.40
2023-08-14T15:58:42.259Z,4.70
2023-08-14T16:01:47.093Z,4.00
2023-08-14T16:04:50.455Z,3.45
2023-08-14T16:07:53.228Z,3.60
2023-08-14T16:10:55.619Z,3.53
2023-08-14T16:13:58.536Z,4.13
2023-08-14T16:17:00.953Z,4.07
2023-08-14T16:20:05.099Z,3.78
2023-08-14T16:23:07.574Z,3.93
2023-08-14T16:26:09.986Z,4.70
2023-08-14T16:29:12.760Z,4.18
2023-08-14T16:32:16.031Z,4.85
2023-08-14T16:35:18.460Z,4.93
2023-08-14T16:38:20.891Z,3.93
2023-08-14T16:41:23.281Z,4.90
2023-08-14T16:44:25.765Z,4.80
2023-08-14T16:47:29.329Z,5.55
2023-08-14T16:50:31.997Z,4.07
2023-08-14T16:53:34.565Z,4.37
2023-08-14T16:56:39.088Z,4.07
2023-08-14T16:59:41.526Z,4.13
2023-08-14T17:02:44.001Z,5.88
2023-08-14T17:05:46.377Z,5.97
2023-08-14T17:08:48.759Z,4.60
2023-08-14T17:11:51.139Z,5.23
2023-08-14T17:14:53.506Z,4.07
2023-08-14T17:17:55.986Z,4.65
2023-08-14T17:20:58.782Z,4.32
2023-08-14T17:24:01.215Z,5.40
2023-08-14T17:27:03.919Z,4.77
2023-08-14T17:30:07.155Z,5.30
2023-08-14T17:33:09.719Z,4.53
2023-08-14T17:36:12.134Z,3.97
2023-08-14T17:39:14.556Z,5.07
2023-08-14T17:42:17.173Z,4.20
2023-08-14T17:45:19.572Z,6.25
2023-08-14T17:48:22.326Z,4.13
2023-08-14T17:51:24.776Z,4.68
2023-08-14T17:54:27.166Z,4.80
2023-08-14T17:57:29.497Z,4.97
2023-08-14T18:00:31.945Z,5.45
2023-08-14T18:03:35.243Z,4.85
2023-08-14T18:06:37.750Z,4.22
2023-08-14T18:09:40.145Z,4.67
2023-08-14T18:12:42.559Z,5.20
2023-08-14T18:15:45.276Z,5.18
2023-08-14T18:18:47.739Z,5.18
2023-08-14T18:21:50.137Z,5.38
2023-08-14T18:24:52.506Z,4.40
2023-08-14T18:27:54.914Z,5.07
2023-08-14T18:30:57.338Z,5.28
2023-08-14T18:33:59.803Z,5.40
2023-08-14T18:37:02.266Z,5.55
2023-08-14T18:40:05.279Z,5.87
2023-08-14T18:43:08.337Z,6.20
2023-08-14T18:46:10.777Z,6.82
2023-08-14T18:49:13.252Z,7.75
2023-08-14T18:52:15.697Z,5.82
2023-08-14T18:55:18.110Z,5.20
2023-08-14T18:58:20.605Z,6.50
2023-08-14T19:01:23.082Z,7.15
2023-08-14T19:04:40.994Z,9.65
2023-08-14T19:07:44.417Z,6.28
2023-08-14T19:10:46.826Z,4.90
2023-08-14T19:13:49.326Z,4.63
2023-08-14T19:16:51.754Z,10.60
2023-08-14T19:19:54.242Z,6.78
2023-08-14T19:22:56.669Z,5.28
2023-08-14T19:25:59.064Z,5.50
2023-08-14T19:29:01.488Z,5.67
2023-08-14T19:32:04.126Z,9.23
2023-08-14T19:35:07.248Z,4.63
2023-08-14T19:38:10.035Z,5.22
2023-08-14T19:41:12.476Z,6.10
2023-08-14T19:44:14.868Z,7.50
2023-08-14T19:47:17.522Z,5.03
2023-08-14T19:50:20.316Z,6.03
2023-08-14T19:53:22.747Z,5.43
2023-08-14T19:56:25.104Z,6.07
2023-08-14T19:59:27.551Z,6.63
2023-08-14T20:02:29.969Z,5.93
2023-08-14T20:05:32.444Z,7.10
2023-08-14T20:08:34.885Z,5.30
2023-08-14T20:11:37.264Z,6.17
2023-08-14T20:14:41.328Z,5.83
2023-08-14T20:17:43.877Z,8.13
2023-08-14T20:20:46.543Z,5.35
2023-08-14T20:23:48.895Z,5.40
2023-08-14T20:26:51.397Z,5.17
2023-08-14T20:29:54.096Z,5.40
2023-08-14T20:32:56.643Z,5.35
2023-08-14T20:35:59.086Z,6.03
2023-08-14T20:39:01.563Z,6.00
2023-08-14T20:42:04.086Z,6.77
2023-08-14T20:45:07.214Z,6.50
2023-08-14T20:48:09.969Z,5.70
2023-08-14T20:51:13.057Z,5.30
2023-08-14T20:54:15.465Z,5.50
2023-08-14T20:57:18.525Z,6.17
2023-08-14T21:00:21.136Z,5.63
2023-08-14T21:03:23.721Z,5.20
2023-08-14T21:06:26.412Z,5.70
2023-08-14T21:09:29.213Z,6.72
2023-08-14T21:12:31.659Z,5.37
2023-08-14T21:15:34.181Z,5.33
2023-08-14T21:18:36.696Z,6.95
2023-08-14T21:21:39.636Z,5.05
2023-08-14T21:24:42.025Z,5.60
2023-08-14T21:27:45.744Z,5.10
2023-08-14T21:30:48.229Z,5.43
2023-08-14T21:33:50.681Z,7.43
2023-08-14T21:36:53.038Z,6.03
2023-08-14T21:39:55.533Z,7.50
2023-08-14T21:42:58.483Z,5.50
2023-08-14T21:46:01.079Z,6.03
2023-08-14T21:49:03.751Z,6.60
2023-08-14T21:52:06.801Z,6.20
2023-08-14T21:55:09.675Z,6.72
2023-08-14T21:58:12.130Z,5.40
2023-08-14T22:01:14.609Z,5.73
2023-08-14T22:04:17.154Z,6.90
2023-08-14T22:07:19.743Z,7.57
2023-08-14T22:10:22.357Z,6.22
2023-08-14T22:13:25.509Z,7.70
2023-08-14T22:16:28.322Z,7.40
2023-08-14T22:19:30.831Z,6.20
2023-08-14T22:22:33.232Z,6.65
2023-08-14T22:25:35.699Z,5.18
2023-08-14T22:28:40.264Z,6.53
2023-08-14T22:31:42.646Z,6.47
2023-08-14T22:34:45.059Z,6.43
2023-08-14T22:37:47.416Z,6.82
2023-08-14T22:40:51.378Z,5.93
2023-08-14T22:43:53.794Z,6.30
2023-08-14T22:46:56.294Z,6.30
2023-08-14T22:49:58.689Z,6.88
2023-08-14T22:53:01.341Z,6.35
2023-08-14T22:56:03.907Z,6.65
2023-08-14T22:59:06.278Z,5.77
2023-08-14T23:02:08.695Z,6.17
2023-08-14T23:05:11.083Z,7.90
2023-08-14T23:08:13.430Z,8.68
2023-08-14T23:11:15.842Z,5.90
2023-08-14T23:14:18.221Z,7.57
2023-08-14T23:17:20.734Z,6.40
2023-08-14T23:20:23.296Z,6.63
2023-08-14T23:23:25.790Z,7.05
2023-08-14T23:26:28.200Z,6.53
2023-08-14T23:29:30.613Z,6.23
2023-08-14T23:32:33.076Z,6.77
2023-08-14T23:35:35.481Z,6.40
2023-08-14T23:38:37.959Z,6.68
2023-08-14T23:41:40.924Z,6.90
2023-08-14T23:44:43.320Z,6.73
2023-08-14T23:47:45.767Z,6.77
2023-08-14T23:50:48.308Z,10.77
2023-08-14T23:53:50.886Z,6.80
2023-08-14T23:56:53.257Z,6.95
2023-08-14T23:59:55.621Z,7.60
